Old Orchard Beach, ME

7:48 PM EDT on August 31, 2015 (GMT -0400)
Saco Bay | | Change Station
CLOSE
Current Station
Personal Weather Station
Location: Saco, ME
Elevation: 16 ft
Nearby Weather Stations

Elev 16 ft 43.49 °N, 70.39 °W | Updated 1 minute ago

Mostly Cloudy
Mostly Cloudy
77.2 °F
Feels Like 79 °F
N
0.0
Wind Variable Wind from West

Today
High -- | Low -- °F
--% Chance of Precip.
Yesterday
High -- | Low -- °F
Precip. -- in
6:03 AM 7:19 PM
Waning Gibbous, 93% visible
Pressure 29.85 in
Visibility 9.0 miles
Clouds Mostly Cloudy 8000 ft
Heat Index 79 °F
Dew Point 58 °F
Humidity 52%
Rainfall 0.03 in
Snow Depth Not available.
UV 0 out of 12
Pollen 8.90 out of 12
Air Quality Not available.
Flu Activity Not available.
METAR KPWM 312251Z 26006KT 9SM BKN080 27/18 A2985 RMK AO2 SLP106 T02670178
Pressure 29.85 in
Visibility 9.0 miles
Clouds Mostly Cloudy 8000 ft
Heat Index 79 °F
Dew Point 58 °F
Humidity 52%
Rainfall 0.03 in
Snow Depth Not available.
UV 0 out of 12
Pollen 8.90 out of 12
Air Quality Not available.
Flu Activity Not available.
METAR KPWM 312251Z 26006KT 9SM BKN080 27/18 A2985 RMK AO2 SLP106 T02670178

10-Day Weather Forecast

×

Almanac

Astronomy

Aug. 31, 2015 Rise Set
Actual Time
Civil Twilight
Nautical Twilight
Astronomical Twilight
Moon
Length of Visible Light
Length of Day
Tomorrow will be .
, % of the Moon is Illuminated

Today's Extremes

State Highs State Lows

Community

WunderPhotos

Upload Photos

1,851,395 photos uploaded!

WunderBlogs® & News

Nearby

Air Quality

  Air Quality AQ Index Pollutant
Not available.

Snow Depth

Station Depth Elevation

Earthquake Activity

City Distance Mag. Time & Date
Minimum magnitude displayed is 2.5.

Coastal Water Temperatures

Place Temperature

Stations

Nearby Weather Stations

Station Location Temp. Windchill Dew Point Humidity Wind Precip. Elev Updated Type